Terminal Aerodrome Forecast
Issued by NWS Sioux Falls, SD

Home | Current Version | Previous Version | Graphics & Text | Print | Product List | Glossary Off
Versions: 1 2 3 4 5 6 7 8 9 10 11 12 13 14 15 16 17 18 19

000
FTUS43 KFSD 201100 RRA
TAFHON
TAF
KHON 201142Z 2012/2112 14008KT P6SM SCT250
     FM201500 14013G20KT P6SM BKN150
     FM202300 14010KT P6SM SCT040 BKN120
      TEMPO 2100/2104 5SM TSRA BKN040CB
     FM210900 20006KT 3SM BR FEW010=

USA.gov is the U.S. government's official web portal to all federal, state and local government web resources and services.